Lubbock, TX (79424)

1:08 AM CST on December 22, 2014 (GMT -0600)
Monterey | Change Station
CLOSE
Current Station
Personal Weather Station
Location: Lubbock, TX
Elevation: 3281 ft
Nearby Weather Stations

Elev 3281 ft 33.52 °N, 101.96 °W | Updated 2 minutes ago

Mostly Cloudy
Mostly Cloudy
54.9 °F
Feels Like 54.9 °F
N
9.9
Wind Variable Wind from West

Today
High -- | Low -- °F
--% Chance of Precip.
Yesterday
High -- | Low -- °F
Precip. -- in
7:48 AM 5:44 PM
New Moon, 0% visible
Pressure 29.52 in
Visibility 10.0 miles
Clouds Mostly Cloudy 26000 ft
Dew Point 33 °F
Humidity 43%
Rainfall 0.00 in
Snow Depth Not available.
UV 0 out of 12
Pollen 9.00 out of 12
Air Quality Not available.
Flu Activity Not available.
METAR KLBB 220653Z 29018G26KT 10SM BKN260 12/M01 A2961 RMK AO2 PK WND 29026/0649 SLP995 T01221011

More Conditions Fewer Conditions

Pressure 29.52 in
Visibility 10.0 miles
Clouds Mostly Cloudy 26000 ft
Dew Point 33 °F
Humidity 43%
Rainfall 0.00 in
Snow Depth Not available.
UV 0 out of 12
Pollen 9.00 out of 12
Air Quality Not available.
Flu Activity Not available.
METAR KLBB 220653Z 29018G26KT 10SM BKN260 12/M01 A2961 RMK AO2 PK WND 29026/0649 SLP995 T01221011

More Conditions Fewer Conditions

10-Day Weather Forecast

Almanac

Astronomy

Dec. 22, 2014 Rise Set
Actual Time
Civil Twilight
Nautical Twilight
Astronomical Twilight
Moon
Length of Visible Light
Length of Day
Tomorrow will be .
, % of the Moon is Illuminated

Today's Extremes

State Highs State Lows

Community

WunderPhotos

Upload Photos

1,779,560 photos uploaded!

WunderBlogs® & News

Nearby

Air Quality

  Air Quality AQ Index Pollutant
Not available.

Snow Depth

Station Depth Elevation

Earthquake Activity

City Distance Mag. Time & Date
Minimum magnitude displayed is 2.5.

Coastal Water Temperatures

Place Temperature

Nearby Weather Stations